Time;durP1;ratioP1;P1;durP2;ratioP2;P2;SDS_P1;SDS_P2;PMS_P1;PMS_P2;Temp;Humidity;BMP_temperature;BMP_pressure;BME280_temperature;BME280_humidity;BME280_pressure;Samples;Min_cycle;Max_cycle;Signal;HPM_P1;HPM_P2
2022/01/23 00:02:20;;;;;;;5.00;3.40;;;;;;;;;;6155621;23;20055;-78
2022/01/23 00:04:49;;;;;;;7.63;4.50;;;;;;;;;;6155753;23;20430;-79
2022/01/23 00:07:16;;;;;;;8.98;4.47;;;;;;;;;;6155698;23;20001;-78
2022/01/23 00:09:43;;;;;;;6.55;3.78;;;;;;;;;;6155732;23;20016;-79
2022/01/23 00:12:14;;;;;;;6.88;3.95;;;;;;;;;;6155562;23;20029;-78
2022/01/23 00:17:25;;;;;;;6.88;4.47;;;;;;;;;;6155889;23;20128;-78
2022/01/23 00:19:53;;;;;;;7.82;4.32;;;;;;;;;;6155350;23;20001;-79
2022/01/23 00:30:46;;;;;;;7.20;4.13;;;;;;;;;;6155493;23;20028;-79
2022/01/23 00:33:15;;;;;;;6.75;3.92;;;;;;;;;;6153947;23;20014;-80
2022/01/23 00:35:43;;;;;;;7.18;4.80;;;;;;;;;;6154037;23;20003;-80
2022/01/23 00:38:10;;;;;;;5.38;4.40;;;;;;;;;;6155609;23;20517;-80
2022/01/23 00:40:43;;;;;;;7.43;4.28;;;;;;;;;;6140817;23;20018;-79
2022/01/23 00:43:30;;;;;;;5.53;3.47;;;;;;;;;;6099947;23;20013;-79
2022/01/23 00:49:12;;;;;;;;;;;;;;;;;;;;;
2022/01/23 00:55:04;;;;;;;6.15;3.30;;;;;;;;;;6008258;23;20014;-79
2022/01/23 00:57:48;;;;;;;8.98;4.43;;;;;;;;;;6008359;23;20015;-78
2022/01/23 01:00:36;;;;;;;7.82;4.38;;;;;;;;;;6104806;23;20010;-78
2022/01/23 01:03:18;;;;;;;7.18;4.25;;;;;;;;;;6125762;23;20013;-78
2022/01/23 01:06:01;;;;;;;;;;;;;;;;;;;;;
2022/01/23 01:08:38;;;;;;;;;;;;;;;;;;;;;
2022/01/23 01:31:41;;;;;;;7.10;3.72;;;;;;;;;;6125717;23;20452;-79
2022/01/23 01:34:16;;;;;;;6.25;3.75;;;;;;;;;;6125456;23;20081;-78
2022/01/23 01:36:48;;;;;;;6.38;3.88;;;;;;;;;;6099788;23;20438;-79
2022/01/23 01:39:18;;;;;;;5.55;3.28;;;;;;;;;;6125247;23;20036;-79
2022/01/23 01:41:45;;;;;;;5.80;3.95;;;;;;;;;;6125295;23;20037;-78
2022/01/23 01:44:11;;;;;;;9.23;5.18;;;;;;;;;;6099410;23;20013;-78
2022/01/23 01:46:41;;;;;;;4.88;3.10;;;;;;;;;;6125741;23;20034;-79
2022/01/23 01:49:07;;;;;;;8.57;4.75;;;;;;;;;;6125557;23;20031;-78
2022/01/23 01:51:36;;;;;;;6.97;4.55;;;;;;;;;;6125729;23;20003;-78
2022/01/23 01:54:16;;;;;;;8.13;4.32;;;;;;;;;;6099112;23;20062;-80
2022/01/23 01:57:10;;;;;;;10.75;5.25;;;;;;;;;;6125319;23;20002;-78
2022/01/23 01:59:49;;;;;;;4.40;3.25;;;;;;;;;;6124520;23;20044;-79
2022/01/23 02:10:33;;;;;;;5.82;3.38;;;;;;;;;;6125293;23;19908;-79
2022/01/23 02:16:19;;;;;;;6.10;3.25;;;;;;;;;;6106249;23;20008;-79
2022/01/23 02:54:41;;;;;;;5.28;3.67;;;;;;;;;;6125192;23;20017;-78
2022/01/23 02:57:09;;;;;;;4.90;2.95;;;;;;;;;;6125107;23;20030;-78
2022/01/23 02:59:40;;;;;;;5.32;3.30;;;;;;;;;;6099070;23;20016;-78
2022/01/23 03:04:36;;;;;;;7.00;3.70;;;;;;;;;;6134888;23;20028;-78
2022/01/23 03:14:53;;;;;;;5.20;3.55;;;;;;;;;;6136602;23;20020;-78
2022/01/23 03:28:27;;;;;;;5.60;3.40;;;;;;;;;;6126745;23;20526;-78
2022/01/23 03:31:19;;;;;;;6.97;4.57;;;;;;;;;;6126288;23;20009;-78
2022/01/23 03:33:45;;;;;;;7.55;4.15;;;;;;;;;;6126608;23;20108;-78
2022/01/23 03:36:11;;;;;;;6.50;4.30;;;;;;;;;;6100835;23;20010;-79
2022/01/23 03:38:37;;;;;;;6.22;3.70;;;;;;;;;;6126801;23;20441;-79
2022/01/23 03:41:04;;;;;;;6.10;2.95;;;;;;;;;;6144038;23;20442;-79
2022/01/23 03:43:35;;;;;;;10.55;4.10;;;;;;;;;;6155991;23;20454;-79
2022/01/23 03:51:52;;;;;;;4.75;3.58;;;;;;;;;;6155987;23;20012;-79
2022/01/23 03:54:23;;;;;;;5.50;4.07;;;;;;;;;;6156053;23;20036;-79
2022/01/23 03:56:51;;;;;;;6.30;4.22;;;;;;;;;;6129386;23;20012;-78
2022/01/23 03:59:17;;;;;;;6.57;3.72;;;;;;;;;;6129826;23;20021;-78
2022/01/23 04:01:46;;;;;;;9.25;4.70;;;;;;;;;;6155931;23;20008;-79
2022/01/23 04:04:32;;;;;;;7.20;4.30;;;;;;;;;;6155830;23;20012;-78
2022/01/23 04:07:21;;;;;;;8.02;4.65;;;;;;;;;;6155878;23;20014;-78
2022/01/23 04:15:10;;;;;;;6.93;4.15;;;;;;;;;;6165441;23;20037;-79
2022/01/23 05:04:38;;;;;;;22.08;14.13;;;;;;;;;;6155453;23;20422;-78
2022/01/23 05:07:10;;;;;;;21.40;13.27;;;;;;;;;;6129361;23;20137;-78
2022/01/23 05:09:36;;;;;;;27.25;15.68;;;;;;;;;;6155232;23;20012;-78
2022/01/23 05:12:25;;;;;;;43.20;21.77;;;;;;;;;;6155460;23;20005;-78
2022/01/23 05:14:54;;;;;;;26.20;12.80;;;;;;;;;;6155175;23;20002;-78
2022/01/23 05:17:21;;;;;;;22.23;13.52;;;;;;;;;;6154729;23;19997;-78
2022/01/23 05:19:54;;;;;;;16.30;9.82;;;;;;;;;;6155148;23;20002;-78
2022/01/23 05:27:39;;;;;;;13.10;8.40;;;;;;;;;;6139237;23;20012;-79
2022/01/23 05:30:06;;;;;;;27.92;14.85;;;;;;;;;;6154870;23;19997;-79
2022/01/23 05:32:35;;;;;;;20.70;13.30;;;;;;;;;;6155102;23;20414;-78
2022/01/23 05:35:02;;;;;;;16.50;9.55;;;;;;;;;;6129348;23;20010;-78
2022/01/23 05:37:28;;;;;;;16.50;8.57;;;;;;;;;;6154664;23;20010;-78
2022/01/23 05:39:57;;;;;;;14.85;7.78;;;;;;;;;;6128708;23;20341;-78
2022/01/23 05:42:26;;;;;;;9.10;6.90;;;;;;;;;;6155063;23;20049;-79
2022/01/23 05:44:55;;;;;;;20.70;10.52;;;;;;;;;;6154921;23;20002;-79
2022/01/23 05:47:21;;;;;;;32.25;17.92;;;;;;;;;;6154996;23;20028;-78
2022/01/23 05:49:47;;;;;;;37.42;20.80;;;;;;;;;;6154760;23;20084;-78
2022/01/23 05:52:16;;;;;;;30.05;16.70;;;;;;;;;;6128970;23;20089;-78
2022/01/23 05:54:42;;;;;;;47.67;23.52;;;;;;;;;;6154597;23;20028;-78
2022/01/23 05:57:08;;;;;;;29.33;14.25;;;;;;;;;;6128629;23;20013;-78
2022/01/23 05:59:34;;;;;;;21.73;12.38;;;;;;;;;;6154814;23;19997;-78
2022/01/23 06:02:00;;;;;;;22.52;13.75;;;;;;;;;;6154827;23;20009;-78
2022/01/23 06:04:27;;;;;;;17.92;12.18;;;;;;;;;;6155373;23;20002;-78
2022/01/23 06:06:55;;;;;;;22.33;13.07;;;;;;;;;;6128674;23;20089;-78
2022/01/23 06:09:24;;;;;;;29.13;15.13;;;;;;;;;;6154914;23;20005;-78
2022/01/23 06:11:50;;;;;;;34.63;16.77;;;;;;;;;;6154668;23;20025;-78
2022/01/23 06:14:17;;;;;;;30.92;15.95;;;;;;;;;;6154899;23;19997;-78
2022/01/23 06:16:43;;;;;;;29.45;16.13;;;;;;;;;;6154729;23;20008;-78
2022/01/23 06:19:12;;;;;;;17.48;10.77;;;;;;;;;;6141381;23;20010;-78
2022/01/23 06:21:40;;;;;;;14.30;10.27;;;;;;;;;;6154391;23;20076;-78
2022/01/23 06:24:46;;;;;;;12.95;8.10;;;;;;;;;;6154933;23;20031;-78
2022/01/23 06:27:02;;;;;;;12.52;8.00;;;;;;;;;;6150877;23;20009;-78
2022/01/23 06:29:33;;;;;;;15.13;7.95;;;;;;;;;;6154723;23;20025;-78
2022/01/23 06:32:08;;;;;;;14.80;8.98;;;;;;;;;;6154903;23;19997;-78
2022/01/23 06:34:37;;;;;;;13.63;8.60;;;;;;;;;;6154978;23;20009;-78
2022/01/23 06:37:06;;;;;;;15.02;8.55;;;;;;;;;;6150452;23;20140;-78
2022/01/23 06:39:32;;;;;;;27.50;14.75;;;;;;;;;;6147265;23;20018;-78
2022/01/23 06:42:01;;;;;;;22.02;13.48;;;;;;;;;;6156111;23;20014;-78
2022/01/23 06:44:27;;;;;;;20.13;12.35;;;;;;;;;;6157025;23;20096;-78
2022/01/23 06:46:54;;;;;;;17.67;12.07;;;;;;;;;;6156482;23;20024;-78
2022/01/23 06:49:20;;;;;;;12.45;7.90;;;;;;;;;;6156245;23;20453;-78
2022/01/23 06:51:49;;;;;;;14.70;8.70;;;;;;;;;;6156389;23;20437;-78
2022/01/23 06:54:18;;;;;;;12.07;7.65;;;;;;;;;;6156489;23;20428;-78
2022/01/23 06:56:45;;;;;;;11.20;7.25;;;;;;;;;;6156711;23;20414;-78
2022/01/23 07:01:55;;;;;;;21.17;12.60;;;;;;;;;;6156168;23;20104;-78
2022/01/23 07:04:21;;;;;;;25.23;15.02;;;;;;;;;;6156423;23;20001;-78
2022/01/23 07:06:51;;;;;;;24.88;12.27;;;;;;;;;;6156079;23;20002;-78
2022/01/23 07:09:17;;;;;;;15.52;8.10;;;;;;;;;;6156352;23;20009;-78
2022/01/23 07:11:46;;;;;;;10.38;6.28;;;;;;;;;;6155943;23;19997;-78
2022/01/23 07:14:12;;;;;;;10.38;5.97;;;;;;;;;;6156442;23;20461;-78
2022/01/23 07:16:38;;;;;;;10.65;6.30;;;;;;;;;;6156198;23;20073;-78
2022/01/23 07:19:07;;;;;;;10.65;6.30;;;;;;;;;;6156090;23;20501;-78
2022/01/23 07:21:35;;;;;;;10.65;7.60;;;;;;;;;;6156230;23;20005;-77
2022/01/23 07:24:01;;;;;;;17.38;11.68;;;;;;;;;;6156038;23;20002;-77
2022/01/23 07:26:30;;;;;;;24.52;16.58;;;;;;;;;;6156211;23;20096;-77
2022/01/23 07:29:01;;;;;;;39.08;24.60;;;;;;;;;;6155768;23;20061;-77
2022/01/23 07:34:00;;;;;;;40.55;26.08;;;;;;;;;;6166189;23;20013;-78
2022/01/23 07:36:26;;;;;;;37.35;23.25;;;;;;;;;;6156221;23;20337;-78
2022/01/23 07:38:55;;;;;;;28.55;16.27;;;;;;;;;;6156242;23;20068;-78
2022/01/23 07:41:22;;;;;;;25.70;17.30;;;;;;;;;;6156067;23;20085;-78
2022/01/23 07:43:48;;;;;;;15.25;9.00;;;;;;;;;;6155937;23;20001;-79
2022/01/23 07:46:22;;;;;;;22.35;12.18;;;;;;;;;;6156204;23;20033;-81
2022/01/23 07:48:51;;;;;;;9.05;5.80;;;;;;;;;;6155977;23;20006;-78
2022/01/23 07:51:22;;;;;;;14.75;9.43;;;;;;;;;;6155876;23;20025;-79
2022/01/23 07:53:55;;;;;;;11.75;8.85;;;;;;;;;;6155900;23;20029;-78
2022/01/23 07:56:42;;;;;;;;;;;;;;;;;;;;;
2022/01/23 07:59:56;;;;;;;;;;;;;;;;;;;;;
2022/01/23 08:02:32;;;;;;;10.38;6.57;;;;;;;;;;6150650;23;20061;-79
2022/01/23 08:05:28;;;;;;;;;;;;;;;;;;;;;
2022/01/23 08:11:13;;;;;;;12.80;8.23;;;;;;;;;;6155582;23;20002;-78
2022/01/23 08:13:54;;;;;;;;;;;;;;;;;;;;;
2022/01/23 08:16:43;;;;;;;17.30;9.98;;;;;;;;;;6155560;23;20085;-78
2022/01/23 08:22:45;;;;;;;15.75;9.70;;;;;;;;;;6134441;23;20016;-79
2022/01/23 08:25:20;;;;;;;10.73;6.70;;;;;;;;;;6155312;23;20001;-78
2022/01/23 08:28:19;;;;;;;;;;;;;;;;;;;;;
2022/01/23 08:33:59;;;;;;;;;;;;;;;;;;;;;
2022/01/23 08:36:36;;;;;;;;;;;;;;;;;;;;;
2022/01/23 08:42:18;;;;;;;14.23;8.23;;;;;;;;;;6092802;23;20107;-79
2022/01/23 08:45:17;;;;;;;;;;;;;;;;;;;;;
2022/01/23 08:48:11;;;;;;;14.27;9.57;;;;;;;;;;6123538;23;20084;-78
2022/01/23 09:03:42;;;;;;;;;;;;;;;;;;;;;
2022/01/23 09:09:14;;;;;;;11.23;6.10;;;;;;;;;;6036582;23;19901;-82
2022/01/23 09:15:36;;;;;;;;;;;;;;;;;;;;;
2022/01/23 09:18:14;;;;;;;9.07;5.47;;;;;;;;;;6118024;23;20056;-81
2022/01/23 09:24:20;;;;;;;;;;;;;;;;;;;;;
2022/01/23 09:30:18;;;;;;;8.98;5.60;;;;;;;;;;6036078;23;20014;-80
2022/01/23 09:36:14;;;;;;;7.57;4.93;;;;;;;;;;6080746;23;20065;-81
2022/01/23 09:39:14;;;;;;;9.45;5.97;;;;;;;;;;6125565;23;20006;-80
2022/01/23 09:42:32;;;;;;;;;;;;;;;;;;;;;
2022/01/23 09:48:24;;;;;;;11.20;7.18;;;;;;;;;;6125429;23;20010;-81
2022/01/23 09:50:58;;;;;;;12.15;7.95;;;;;;;;;;6122952;23;20010;-79
2022/01/23 09:59:42;;;;;;;14.35;8.48;;;;;;;;;;6035920;23;20334;-80
2022/01/23 10:02:11;;;;;;;14.13;8.07;;;;;;;;;;6036624;23;20007;-77
2022/01/23 10:08:06;;;;;;;;;;;;;;;;;;;;;
2022/01/23 10:11:12;;;;;;;;;;;;;;;;;;;;;
2022/01/23 10:14:00;;;;;;;;;;;;;;;;;;;;;
2022/01/23 10:19:45;;;;;;;;;;;;;;;;;;;;;
2022/01/23 10:25:51;;;;;;;;;;;;;;;;;;;;;
2022/01/23 10:28:51;;;;;;;;;;;;;;;;;;;;;
2022/01/23 10:31:50;;;;;;;;;;;;;;;;;;;;;
2022/01/23 10:34:49;;;;;;;11.27;7.18;;;;;;;;;;6127202;23;20081;-79
2022/01/23 10:50:48;;;;;;;8.80;5.43;;;;;;;;;;6216711;23;20080;-79
2022/01/23 10:53:16;;;;;;;8.07;4.82;;;;;;;;;;6214734;23;20039;-81
2022/01/23 10:55:55;;;;;;;;;;;;;;;;;;;;;
2022/01/23 10:58:24;;;;;;;9.95;4.75;;;;;;;;;;6216540;23;20108;-79
2022/01/23 11:00:50;;;;;;;15.43;9.07;;;;;;;;;;6216262;23;20075;-80
2022/01/23 11:03:29;;;;;;;6.45;3.78;;;;;;;;;;6216292;23;20000;-79
2022/01/23 11:06:02;;;;;;;11.68;6.82;;;;;;;;;;6214312;23;20009;-78
2022/01/23 11:18:26;;;;;;;;;;;;;;;;;;;;;
2022/01/23 11:24:07;;;;;;;10.15;5.45;;;;;;;;;;6009171;23;20012;-82
2022/01/23 11:29:50;;;;;;;16.67;8.55;;;;;;;;;;5981972;24;20038;-78
2022/01/23 11:39:09;;;;;;;;;;;;;;;;;;;;;
2022/01/23 11:56:25;;;;;;;12.00;6.28;;;;;;;;;;6215674;23;20012;-81
2022/01/23 11:59:16;;;;;;;16.70;11.13;;;;;;;;;;6215738;23;20004;-80
2022/01/23 12:01:45;;;;;;;13.40;8.15;;;;;;;;;;6204052;23;20321;-79
2022/01/23 12:04:18;;;;;;;18.80;12.27;;;;;;;;;;6215710;23;20072;-80
2022/01/23 12:06:45;;;;;;;21.63;13.13;;;;;;;;;;6215816;23;20012;-80
2022/01/23 12:09:18;;;;;;;10.95;6.13;;;;;;;;;;6215511;23;20005;-81
2022/01/23 12:12:03;;;;;;;14.00;8.80;;;;;;;;;;6215710;23;20332;-79
2022/01/23 12:17:05;;;;;;;15.77;9.35;;;;;;;;;;6225905;23;20420;-79
2022/01/23 12:19:32;;;;;;;16.83;10.00;;;;;;;;;;6189513;23;20075;-79
2022/01/23 12:22:18;;;;;;;20.33;11.15;;;;;;;;;;6215271;23;20001;-80
2022/01/23 12:24:49;;;;;;;14.35;9.15;;;;;;;;;;6214909;23;20032;-81
2022/01/23 12:27:33;;;;;;;12.73;7.28;;;;;;;;;;6189123;23;20067;-81
2022/01/23 12:30:31;;;;;;;6.50;4.00;;;;;;;;;;6188967;23;20009;-77
2022/01/23 12:33:15;;;;;;;11.10;7.38;;;;;;;;;;6215492;23;19996;-79
2022/01/23 12:35:43;;;;;;;9.35;6.88;;;;;;;;;;6215282;23;20447;-80
2022/01/23 12:38:10;;;;;;;10.73;6.85;;;;;;;;;;6215187;23;20425;-79
2022/01/23 12:40:43;;;;;;;9.57;6.68;;;;;;;;;;6215611;23;20005;-80
2022/01/23 12:43:17;;;;;;;8.73;5.05;;;;;;;;;;6215101;23;20448;-80
2022/01/23 12:45:46;;;;;;;10.57;5.22;;;;;;;;;;6215550;23;20079;-81
2022/01/23 12:48:32;;;;;;;9.88;6.40;;;;;;;;;;6214877;23;20063;-80
2022/01/23 12:51:06;;;;;;;18.83;11.48;;;;;;;;;;6214969;23;20056;-79
2022/01/23 12:53:45;;;;;;;15.13;9.88;;;;;;;;;;6215417;23;20066;-79
2022/01/23 12:56:14;;;;;;;13.65;8.27;;;;;;;;;;6215340;23;19997;-81
2022/01/23 12:58:44;;;;;;;26.45;8.50;;;;;;;;;;6215109;23;20012;-80
2022/01/23 13:01:37;;;;;;;8.77;5.60;;;;;;;;;;6215611;23;20052;-79
2022/01/23 13:04:05;;;;;;;13.98;9.45;;;;;;;;;;6191405;23;20083;-78
2022/01/23 13:06:32;;;;;;;14.80;9.95;;;;;;;;;;6215157;23;20032;-79
2022/01/23 13:09:19;;;;;;;11.43;7.00;;;;;;;;;;6213664;23;20004;-79
2022/01/23 13:12:15;;;;;;;10.65;6.95;;;;;;;;;;6215202;23;20024;-79
2022/01/23 13:32:43;;;;;;;10.35;6.78;;;;;;;;;;6212927;23;20016;-79
2022/01/23 13:35:13;;;;;;;10.75;6.90;;;;;;;;;;6214656;23;20008;-79
2022/01/23 13:37:41;;;;;;;16.05;11.07;;;;;;;;;;6214832;23;20378;-79
2022/01/23 13:40:12;;;;;;;21.08;13.15;;;;;;;;;;6214577;23;20318;-78
2022/01/23 13:59:25;;;;;;;15.05;9.27;;;;;;;;;;6214866;23;20016;-79
2022/01/23 14:02:06;;;;;;;14.20;8.02;;;;;;;;;;6214783;23;20008;-80
2022/01/23 14:04:38;;;;;;;13.10;9.02;;;;;;;;;;6214995;23;20012;-79
2022/01/23 14:07:04;;;;;;;15.23;10.07;;;;;;;;;;6214591;23;20001;-78
2022/01/23 14:09:39;;;;;;;20.25;13.18;;;;;;;;;;6214763;23;20433;-78
2022/01/23 14:12:09;;;;;;;16.30;10.70;;;;;;;;;;6214554;23;20098;-79
2022/01/23 14:14:35;;;;;;;19.08;12.02;;;;;;;;;;6214829;23;20310;-80
2022/01/23 14:17:35;;;;;;;23.35;15.48;;;;;;;;;;6214508;23;20001;-79
2022/01/23 14:20:10;;;;;;;11.77;6.30;;;;;;;;;;6198289;23;20024;-82
2022/01/23 14:22:40;;;;;;;11.90;7.55;;;;;;;;;;6212993;23;20000;-80
2022/01/23 14:25:17;;;;;;;11.38;7.97;;;;;;;;;;6213173;23;20416;-79
2022/01/23 14:27:45;;;;;;;18.65;11.70;;;;;;;;;;6215125;23;19996;-78
2022/01/23 14:30:18;;;;;;;18.77;10.77;;;;;;;;;;6214334;23;20342;-79
2022/01/23 14:33:06;;;;;;;12.88;8.70;;;;;;;;;;6215140;23;20073;-79
2022/01/23 14:35:33;;;;;;;20.15;13.00;;;;;;;;;;6214576;23;20004;-78
2022/01/23 14:38:15;;;;;;;16.95;10.77;;;;;;;;;;6214227;23;20333;-79
2022/01/23 14:41:00;;;;;;;17.73;11.70;;;;;;;;;;6214183;23;20001;-79
2022/01/23 14:43:34;;;;;;;20.05;13.35;;;;;;;;;;6214028;22;20021;-78
2022/01/23 14:46:03;;;;;;;16.10;10.40;;;;;;;;;;6214417;23;20425;-80
2022/01/23 14:48:36;;;;;;;10.13;5.45;;;;;;;;;;6214394;23;20217;-79
2022/01/23 14:51:04;;;;;;;8.73;5.78;;;;;;;;;;6214477;23;20509;-78
2022/01/23 14:53:34;;;;;;;14.55;9.07;;;;;;;;;;6214376;23;20005;-79
2022/01/23 14:56:01;;;;;;;11.85;6.75;;;;;;;;;;6214411;23;20005;-78
2022/01/23 14:58:29;;;;;;;13.23;6.78;;;;;;;;;;6214201;23;20077;-78
2022/01/23 15:00:56;;;;;;;11.02;7.68;;;;;;;;;;6214782;23;20008;-80
2022/01/23 15:03:23;;;;;;;8.65;5.85;;;;;;;;;;6216301;23;20027;-79
2022/01/23 15:05:49;;;;;;;12.60;7.47;;;;;;;;;;6216291;23;20012;-79
2022/01/23 15:08:20;;;;;;;10.10;5.65;;;;;;;;;;6216280;23;20011;-78
2022/01/23 15:10:48;;;;;;;10.27;6.10;;;;;;;;;;6216480;23;20080;-78
2022/01/23 15:13:14;;;;;;;7.47;4.93;;;;;;;;;;6214408;23;20506;-79
2022/01/23 15:15:41;;;;;;;11.10;5.50;;;;;;;;;;6216126;23;20386;-79
2022/01/23 15:18:35;;;;;;;;;;;;;;;;;;;;;
2022/01/23 15:24:25;;;;;;;;;;;;;;;;;;;;;
2022/01/23 15:27:25;;;;;;;;;;;;;;;;;;;;;
2022/01/23 15:30:01;;;;;;;9.70;5.72;;;;;;;;;;6216086;23;20080;-78
2022/01/23 15:32:54;;;;;;;8.20;5.15;;;;;;;;;;6214322;23;20059;-78
2022/01/23 15:35:48;;;;;;;10.20;7.80;;;;;;;;;;6216100;23;20008;-79
2022/01/23 15:38:36;;;;;;;;;;;;;;;;;;;;;
2022/01/23 15:41:35;;;;;;;;;;;;;;;;;;;;;
2022/01/23 15:47:40;;;;;;;11.07;7.20;;;;;;;;;;6189209;23;20008;-79
2022/01/23 15:50:36;;;;;;;;;;;;;;;;;;;;;
2022/01/23 15:53:23;;;;;;;9.90;6.45;;;;;;;;;;6237772;23;20087;-80
2022/01/23 15:56:21;;;;;;;13.07;7.63;;;;;;;;;;6246173;23;20000;-80
2022/01/23 16:01:51;;;;;;;;;;;;;;;;;;;;;
2022/01/23 16:04:18;;;;;;;8.27;4.90;;;;;;;;;;6233686;23;20387;-77
2022/01/23 16:13:09;;;;;;;;;;;;;;;;;;;;;
2022/01/23 16:18:35;;;;;;;;;;;;;;;;;;;;;
2022/01/23 16:21:11;;;;;;;;;;;;;;;;;;;;;
2022/01/23 16:24:05;;;;;;;10.40;6.15;;;;;;;;;;6246019;23;20067;-79
2022/01/23 16:35:50;;;;;;;11.38;7.85;;;;;;;;;;6245833;23;20000;-78
2022/01/23 16:38:45;;;;;;;10.77;6.78;;;;;;;;;;6245761;23;20013;-79
2022/01/23 16:41:42;;;;;;;12.60;7.90;;;;;;;;;;6244350;23;20061;-78
2022/01/23 16:50:07;;;;;;;;;;;;;;;;;;;;;
2022/01/23 16:55:57;;;;;;;;;;;;;;;;;;;;;
2022/01/23 16:58:46;;;;;;;16.70;9.95;;;;;;;;;;6245356;23;20387;-79
2022/01/23 17:01:51;;;;;;;12.63;7.47;;;;;;;;;;6209133;23;20015;-81
2022/01/23 17:04:24;;;;;;;13.63;8.82;;;;;;;;;;6245024;23;20008;-78
2022/01/23 17:07:17;;;;;;;;;;;;;;;;;;;;;
2022/01/23 17:10:05;;;;;;;12.02;7.75;;;;;;;;;;6245617;23;20079;-79
2022/01/23 17:12:34;;;;;;;12.02;7.10;;;;;;;;;;6245800;23;20424;-77
2022/01/23 17:21:43;;;;;;;;;;;;;;;;;;;;;
2022/01/23 17:27:37;;;;;;;;;;;;;;;;;;;;;
2022/01/23 17:33:28;;;;;;;;;;;;;;;;;;;;;
2022/01/23 17:36:28;;;;;;;;;;;;;;;;;;;;;
2022/01/23 17:39:23;;;;;;;13.95;8.35;;;;;;;;;;6175806;23;20088;-79
2022/01/23 17:51:15;;;;;;;;;;;;;;;;;;;;;
2022/01/23 17:54:20;;;;;;;;;;;;;;;;;;;;;
2022/01/23 18:00:00;;;;;;;13.07;7.45;;;;;;;;;;6168129;23;20023;-78
2022/01/23 18:02:57;;;;;;;;;;;;;;;;;;;;;
2022/01/23 18:08:41;;;;;;;10.77;6.90;;;;;;;;;;6168423;23;20005;-79
2022/01/23 18:11:15;;;;;;;10.63;5.53;;;;;;;;;;6187298;23;20012;-79
2022/01/23 18:13:55;;;;;;;10.38;6.55;;;;;;;;;;6188485;23;20004;-78
2022/01/23 18:25:45;;;;;;;;;;;;;;;;;;;;;
2022/01/23 18:28:36;;;;;;;;;;;;;;;;;;;;;
2022/01/23 18:31:33;;;;;;;12.38;7.78;;;;;;;;;;6121996;23;20494;-78
2022/01/23 18:34:21;;;;;;;18.35;8.10;;;;;;;;;;6115215;23;20489;-78
2022/01/23 18:43:08;;;;;;;12.07;6.68;;;;;;;;;;6231638;22;20024;-79
2022/01/23 18:46:02;;;;;;;8.20;4.47;;;;;;;;;;6246968;23;20005;-80
2022/01/23 18:50:58;;;;;;;9.57;6.50;;;;;;;;;;6233092;23;20036;-78
2022/01/23 18:53:46;;;;;;;12.25;6.82;;;;;;;;;;6216440;23;20071;-77
2022/01/23 18:56:56;;;;;;;;;;;;;;;;;;;;;
2022/01/23 19:02:40;;;;;;;;;;;;;;;;;;;;;
2022/01/23 19:14:03;;;;;;;;;;;;;;;;;;;;;
2022/01/23 19:20:27;;;;;;;;;;;;;;;;;;;;;
2022/01/23 19:25:53;;;;;;;15.48;8.40;;;;;;;;;;6080117;23;20387;-78
2022/01/23 19:28:19;;;;;;;11.55;7.35;;;;;;;;;;6095148;23;20006;-77
2022/01/23 19:30:45;;;;;;;12.15;7.40;;;;;;;;;;6113698;23;20063;-79
2022/01/23 19:33:14;;;;;;;11.35;8.48;;;;;;;;;;6214301;23;20076;-78
2022/01/23 19:35:41;;;;;;;9.13;6.68;;;;;;;;;;6216113;23;20001;-80
2022/01/23 19:38:13;;;;;;;12.48;7.65;;;;;;;;;;6215796;23;20000;-80
2022/01/23 19:40:52;;;;;;;12.05;5.88;;;;;;;;;;6216052;23;20000;-78
2022/01/23 19:47:06;;;;;;;8.77;5.93;;;;;;;;;;6199122;23;20005;-80
2022/01/23 19:49:40;;;;;;;9.38;6.88;;;;;;;;;;6213797;23;20401;-79
2022/01/23 19:52:31;;;;;;;9.40;4.90;;;;;;;;;;6214192;23;20352;-77
2022/01/23 20:04:16;;;;;;;7.63;5.80;;;;;;;;;;6199772;23;20009;-79
2022/01/23 20:07:03;;;;;;;10.43;7.13;;;;;;;;;;6215791;23;20001;-78
2022/01/23 20:18:45;;;;;;;;;;;;;;;;;;;;;
2022/01/23 20:21:55;;;;;;;13.88;8.68;;;;;;;;;;6065499;23;20101;-78
2022/01/23 20:25:01;;;;;;;10.88;6.90;;;;;;;;;;6062850;23;20015;-78
2022/01/23 20:31:04;;;;;;;;;;;;;;;;;;;;;
2022/01/23 20:45:58;;;;;;;13.15;8.50;;;;;;;;;;6168857;23;20005;-77
2022/01/23 20:57:26;;;;;;;13.43;9.07;;;;;;;;;;6245474;23;20027;-79
2022/01/23 20:59:52;;;;;;;26.98;15.02;;;;;;;;;;6245254;23;20312;-79
2022/01/23 21:02:20;;;;;;;27.67;15.27;;;;;;;;;;6245585;23;20007;-79
2022/01/23 21:04:48;;;;;;;19.67;13.35;;;;;;;;;;6245625;23;20011;-78
2022/01/23 21:07:15;;;;;;;17.13;10.85;;;;;;;;;;6245589;23;20071;-78
2022/01/23 21:09:41;;;;;;;22.20;16.02;;;;;;;;;;6245118;23;20003;-78
2022/01/23 21:12:10;;;;;;;21.27;12.68;;;;;;;;;;6245532;23;20004;-78
2022/01/23 21:20:07;;;;;;;;;;;;;;;;;;6245835;23;20016;-78
2022/01/23 21:41:15;;;;;;;13.90;10.38;;;;;;;;;;6255406;23;20335;-78
2022/01/23 21:43:41;;;;;;;17.05;11.60;;;;;;;;;;6244898;23;20005;-78
2022/01/23 21:46:07;;;;;;;17.73;10.25;;;;;;;;;;6245103;23;20008;-79
2022/01/23 21:48:34;;;;;;;15.15;10.60;;;;;;;;;;6245267;23;20024;-78
2022/01/23 21:51:01;;;;;;;15.30;10.05;;;;;;;;;;6245123;23;20065;-79
2022/01/23 21:53:29;;;;;;;13.30;7.55;;;;;;;;;;6243723;23;20012;-79
2022/01/23 21:55:55;;;;;;;12.23;7.78;;;;;;;;;;6229861;22;20013;-79
2022/01/23 21:58:29;;;;;;;11.07;7.25;;;;;;;;;;6214742;23;20135;-77
2022/01/23 22:04:01;;;;;;;10.48;7.40;;;;;;;;;;6214888;23;20011;-80
2022/01/23 22:06:33;;;;;;;10.80;7.03;;;;;;;;;;6214577;23;20040;-79
2022/01/23 22:09:25;;;;;;;;;;;;;;;;;;;;;
2022/01/23 22:12:14;;;;;;;10.70;7.05;;;;;;;;;;6215257;23;20385;-79
2022/01/23 22:17:53;;;;;;;10.98;6.88;;;;;;;;;;6216883;23;20059;-80
2022/01/23 22:20:20;;;;;;;7.93;5.82;;;;;;;;;;6216834;23;20009;-80
2022/01/23 22:23:13;;;;;;;9.85;5.72;;;;;;;;;;6216723;23;20332;-82
2022/01/23 22:28:24;;;;;;;;;;;;;;;;;;6217277;23;20063;-81
2022/01/23 22:30:50;;;;;;;12.25;6.60;;;;;;;;;;6215741;23;19900;-82
2022/01/23 22:33:26;;;;;;;;;;;;;;;;;;;;;
2022/01/23 22:35:57;;;;;;;14.30;8.45;;;;;;;;;;6216657;23;20103;-82
2022/01/23 22:38:42;;;;;;;12.50;8.13;;;;;;;;;;6216436;23;20462;-80
2022/01/23 22:45:01;;;;;;;13.13;7.75;;;;;;;;;;6183667;23;20440;-79
2022/01/23 22:48:00;;;;;;;;;;;;;;;;;;;;;
2022/01/23 22:56:57;;;;;;;14.40;9.88;;;;;;;;;;6154651;23;20032;-80
2022/01/23 22:59:26;;;;;;;19.33;11.73;;;;;;;;;;6216338;23;20105;-78
2022/01/23 23:01:57;;;;;;;17.55;10.25;;;;;;;;;;6214653;23;20007;-79
2022/01/23 23:04:32;;;;;;;17.48;11.60;;;;;;;;;;6216582;23;20011;-79
2022/01/23 23:07:37;;;;;;;;;;;;;;;;;;;;;
2022/01/23 23:10:14;;;;;;;;;;;;;;;;;;;;;
2022/01/23 23:22:10;;;;;;;17.80;10.77;;;;;;;;;;6183101;23;20012;-79
2022/01/23 23:24:39;;;;;;;16.60;8.68;;;;;;;;;;6168540;23;20016;-79
2022/01/23 23:27:26;;;;;;;13.27;8.48;;;;;;;;;;6183637;23;20005;-80
2022/01/23 23:30:07;;;;;;;;;;;;;;;;;;;;;
2022/01/23 23:33:19;;;;;;;15.80;10.60;;;;;;;;;;6192593;23;20516;-79
2022/01/23 23:38:33;;;;;;;10.15;7.18;;;;;;;;;;6212246;23;20046;-79
2022/01/23 23:41:16;;;;;;;11.68;7.70;;;;;;;;;;6216172;23;20024;-79
2022/01/23 23:47:02;;;;;;;;;;;;;;;;;;;;;
2022/01/23 23:49:34;;;;;;;15.27;8.25;;;;;;;;;;6216092;23;20075;-79
2022/01/23 23:52:05;;;;;;;14.32;9.07;;;;;;;;;;6214578;23;20005;-79
2022/01/23 23:57:49;;;;;;;;;;;;;;;;;;;;;
